Time;durP1;ratioP1;P1;durP2;ratioP2;P2;SDS_P1;SDS_P2;PMS_P1;PMS_P2;Temp;Humidity;BMP_temperature;BMP_pressure;BME280_temperature;BME280_humidity;BME280_pressure;Samples;Min_cycle;Max_cycle;Signal;HPM_P1;HPM_P2
2022/09/12 00:00:14;;;;;;;13.67;12.43;;;15.40;99.90;;;;;;6156882;23;20418;-89
2022/09/12 00:02:41;;;;;;;13.87;12.03;;;15.30;99.90;;;;;;6156416;23;20443;-89
2022/09/12 00:05:08;;;;;;;14.60;13.17;;;15.30;99.90;;;;;;6156413;23;20480;-89
2022/09/12 00:07:35;;;;;;;13.83;12.40;;;15.30;99.90;;;;;;6157066;23;20412;-89
2022/09/12 00:10:04;;;;;;;16.33;12.90;;;15.30;99.90;;;;;;6164977;23;20395;-88
2022/09/12 00:12:31;;;;;;;14.67;13.10;;;15.30;99.90;;;;;;6166124;23;20426;-89
2022/09/12 00:14:59;;;;;;;15.27;13.20;;;15.20;99.90;;;;;;6164951;23;20423;-89
2022/09/12 00:17:26;;;;;;;15.80;14.20;;;15.20;99.90;;;;;;6157830;23;20419;-89
2022/09/12 00:19:53;;;;;;;16.20;14.57;;;15.10;99.90;;;;;;6159744;23;20396;-90
2022/09/12 00:22:19;;;;;;;16.60;13.13;;;15.00;99.90;;;;;;6183155;23;20519;-91
2022/09/12 00:24:46;;;;;;;16.27;14.10;;;15.00;99.90;;;;;;6183915;23;20498;-91
2022/09/12 00:27:15;;;;;;;14.93;13.43;;;15.00;99.90;;;;;;6182819;23;20470;-90
2022/09/12 00:29:45;;;;;;;14.80;13.37;;;15.00;99.90;;;;;;6174993;23;20414;-90
2022/09/12 00:32:12;;;;;;;13.87;12.47;;;15.00;99.90;;;;;;6164053;23;20396;-90
2022/09/12 00:34:39;;;;;;;16.13;13.67;;;15.00;99.90;;;;;;6168526;23;20798;-91
2022/09/12 00:37:06;;;;;;;14.90;13.50;;;15.00;99.90;;;;;;6181697;23;20427;-91
2022/09/12 00:39:33;;;;;;;13.90;12.60;;;15.00;99.90;;;;;;6183399;23;20423;-91
2022/09/12 00:42:00;;;;;;;15.97;14.40;;;14.90;99.90;;;;;;6183535;23;20399;-91
2022/09/12 00:44:48;;;;;;;17.07;15.07;;;14.90;99.90;;;;;;6183798;23;20424;-90
2022/09/12 00:47:24;;;;;;;15.10;13.63;;;15.00;99.90;;;;;;6182900;23;20507;-90
2022/09/12 00:49:55;;;;;;;15.43;14.03;;;15.00;99.90;;;;;;6182484;23;20399;-91
2022/09/12 00:52:27;;;;;;;16.03;14.37;;;14.90;99.90;;;;;;6182371;23;20387;-92
2022/09/12 00:54:58;;;;;;;15.53;14.00;;;14.90;99.90;;;;;;6183062;23;20451;-89
2022/09/12 00:57:30;;;;;;;14.03;12.67;;;14.90;99.90;;;;;;6183243;23;20380;-90
2022/09/12 01:00:04;;;;;;;15.23;13.83;;;14.90;99.90;;;;;;6182457;23;20419;-93
2022/09/12 01:02:31;;;;;;;14.23;12.83;;;14.90;99.90;;;;;;6181448;23;20427;-90
2022/09/12 01:04:58;;;;;;;16.03;14.33;;;14.80;99.90;;;;;;6181114;23;20438;-90
2022/09/12 01:07:25;;;;;;;16.50;15.00;;;14.80;99.90;;;;;;6172008;23;20426;-89
2022/09/12 01:09:52;;;;;;;15.03;13.53;;;14.70;99.90;;;;;;6156787;23;20414;-90
2022/09/12 01:12:20;;;;;;;17.47;15.37;;;14.70;99.90;;;;;;6163635;23;20417;-89
2022/09/12 01:14:46;;;;;;;15.90;14.20;;;14.70;99.90;;;;;;6182937;23;20459;-90
2022/09/12 01:17:15;;;;;;;14.80;13.40;;;14.70;99.90;;;;;;6183199;23;20394;-90
2022/09/12 01:20:28;;;;;;;15.67;14.10;;;14.70;99.90;;;;;;6181066;23;20434;-92
2022/09/12 01:23:42;;;;;;;13.80;12.50;;;14.70;99.90;;;;;;6126789;23;20474;-89
2022/09/12 01:26:24;;;;;;;15.47;13.87;;;14.70;99.90;;;;;;6135615;23;20451;-91
2022/09/12 01:29:07;;;;;;;15.40;13.90;;;14.70;99.90;;;;;;6158739;23;20372;-89
2022/09/12 01:31:41;;;;;;;15.00;13.60;;;14.70;99.90;;;;;;6158998;23;20413;-89
2022/09/12 01:34:21;;;;;;;15.17;13.67;;;14.60;99.90;;;;;;6155337;23;20437;-90
2022/09/12 01:36:58;;;;;;;15.17;13.57;;;14.60;99.90;;;;;;6155360;23;20762;-89
2022/09/12 01:39:33;;;;;;;13.70;12.40;;;14.60;99.90;;;;;;6157156;23;20398;-89
2022/09/12 01:42:11;;;;;;;14.77;13.27;;;14.50;99.90;;;;;;6174939;23;20478;-90
2022/09/12 01:44:46;;;;;;;14.10;12.77;;;14.50;99.90;;;;;;6168396;23;20427;-89
2022/09/12 01:47:21;;;;;;;14.03;12.73;;;14.50;99.90;;;;;;6157164;23;20922;-90
2022/09/12 01:49:58;;;;;;;15.63;14.07;;;14.40;99.90;;;;;;6166250;23;20399;-90
2022/09/12 01:52:32;;;;;;;14.70;13.10;;;14.40;99.90;;;;;;6182855;23;20383;-90
2022/09/12 01:55:06;;;;;;;15.83;14.33;;;14.40;99.90;;;;;;6179644;23;20450;-90
2022/09/12 01:57:38;;;;;;;14.60;13.07;;;14.40;99.90;;;;;;6169859;23;20390;-90
2022/09/12 02:00:09;;;;;;;17.23;14.07;;;14.30;99.90;;;;;;6181261;23;20408;-92
2022/09/12 02:02:40;;;;;;;15.47;13.43;;;14.30;99.90;;;;;;6181993;23;20447;-91
2022/09/12 02:05:11;;;;;;;15.37;13.87;;;14.30;99.90;;;;;;6182790;23;20423;-91
2022/09/12 02:07:44;;;;;;;14.40;12.90;;;14.30;99.90;;;;;;6164103;23;20398;-90
2022/09/12 02:10:14;;;;;;;15.33;13.83;;;14.30;99.90;;;;;;6159208;23;20391;-90
2022/09/12 02:12:47;;;;;;;16.80;14.80;;;14.30;99.90;;;;;;6157131;23;20383;-89
2022/09/12 02:15:20;;;;;;;17.30;14.63;;;14.20;99.90;;;;;;6155906;23;20453;-89
2022/09/12 02:17:51;;;;;;;15.87;14.20;;;14.20;99.90;;;;;;6155688;23;20378;-90
2022/09/12 02:20:21;;;;;;;16.30;14.70;;;14.20;99.90;;;;;;6157245;23;20411;-89
2022/09/12 02:22:49;;;;;;;16.00;13.60;;;14.20;99.90;;;;;;6164187;23;20511;-90
2022/09/12 02:25:19;;;;;;;14.83;13.43;;;14.20;99.90;;;;;;6174082;23;20521;-89
2022/09/12 02:27:55;;;;;;;14.80;13.47;;;14.20;99.90;;;;;;6173067;23;20410;-89
2022/09/12 02:30:25;;;;;;;16.57;14.87;;;14.20;99.90;;;;;;6161949;23;20407;-90
2022/09/12 02:33:00;;;;;;;20.10;14.67;;;14.10;99.90;;;;;;6160165;23;20473;-89
2022/09/12 02:35:35;;;;;;;15.53;14.03;;;14.20;99.90;;;;;;6158519;23;20486;-89
2022/09/12 02:38:06;;;;;;;15.70;14.23;;;14.10;99.90;;;;;;6158783;23;20403;-89
2022/09/12 02:40:34;;;;;;;17.47;14.70;;;14.10;99.90;;;;;;6175031;23;20464;-89
2022/09/12 02:43:02;;;;;;;15.27;13.77;;;14.10;99.90;;;;;;6183135;23;20486;-90
2022/09/12 02:45:31;;;;;;;17.30;15.50;;;14.10;99.90;;;;;;6183813;23;20412;-91
2022/09/12 02:48:05;;;;;;;16.00;14.30;;;14.10;99.90;;;;;;6169716;23;20451;-90
2022/09/12 02:50:35;;;;;;;16.60;15.00;;;14.10;99.90;;;;;;6161429;23;20419;-90
2022/09/12 02:53:07;;;;;;;15.50;14.03;;;14.10;99.90;;;;;;6160127;23;20929;-90
2022/09/12 02:55:36;;;;;;;15.30;13.90;;;14.10;99.90;;;;;;6157898;23;20419;-90
2022/09/12 02:58:06;;;;;;;16.57;14.90;;;14.10;99.90;;;;;;6157303;23;20421;-89
2022/09/12 03:00:38;;;;;;;13.83;12.50;;;14.10;99.90;;;;;;6157443;23;20874;-90
2022/09/12 03:03:26;;;;;;;14.50;13.10;;;14.10;99.90;;;;;;6157358;23;20930;-89
2022/09/12 03:05:59;;;;;;;14.80;13.40;;;14.00;99.90;;;;;;6157512;23;20380;-90
2022/09/12 03:09:01;;;;;;;15.40;13.80;;;13.90;99.90;;;;;;6157149;23;20376;-89
2022/09/12 03:11:52;;;;;;;17.33;12.87;;;13.90;99.90;;;;;;6154611;23;20439;-89
2022/09/12 03:14:36;;;;;;;15.40;13.90;;;13.80;99.90;;;;;;6159213;23;20454;-89
2022/09/12 03:17:14;;;;;;;15.20;13.80;;;13.80;99.90;;;;;;6160767;23;20442;-91
2022/09/12 03:19:54;;;;;;;16.27;14.67;;;13.80;99.90;;;;;;6156770;23;20403;-90
2022/09/12 03:22:28;;;;;;;18.90;15.03;;;13.70;99.90;;;;;;6157326;23;20382;-90
2022/09/12 03:25:04;;;;;;;20.50;16.40;;;13.70;99.90;;;;;;6156060;23;20453;-90
2022/09/12 03:27:35;;;;;;;17.30;15.50;;;13.70;99.90;;;;;;6185524;23;20391;-93
2022/09/12 03:30:05;;;;;;;16.17;14.47;;;13.70;99.90;;;;;;6183578;23;20380;-91
2022/09/12 03:32:42;;;;;;;20.43;18.40;;;13.70;99.90;;;;;;6183930;23;20478;-90
2022/09/12 03:35:13;;;;;;;18.23;16.30;;;13.70;99.90;;;;;;6164274;23;21025;-90
2022/09/12 03:37:43;;;;;;;18.70;16.80;;;13.70;99.90;;;;;;6157151;23;20392;-90
2022/09/12 03:40:20;;;;;;;19.57;16.47;;;13.70;99.90;;;;;;6182172;23;20409;-91
2022/09/12 03:42:55;;;;;;;24.53;17.60;;;13.60;99.90;;;;;;6182614;23;20360;-92
2022/09/12 03:45:22;;;;;;;17.83;16.03;;;13.60;99.90;;;;;;6172679;23;20501;-90
2022/09/12 03:47:48;;;;;;;18.50;16.60;;;13.60;99.90;;;;;;6159496;23;20396;-87
2022/09/12 03:50:17;;;;;;;21.60;15.83;;;13.60;99.90;;;;;;6165279;23;20403;-86
2022/09/12 03:52:44;;;;;;;21.43;15.77;;;13.60;99.90;;;;;;6165700;23;20502;-85
2022/09/12 03:55:11;;;;;;;21.43;17.70;;;13.60;99.90;;;;;;6165710;23;20431;-85
2022/09/12 03:57:38;;;;;;;18.40;16.40;;;13.60;99.90;;;;;;6164558;23;20409;-84
2022/09/12 04:00:06;;;;;;;21.07;17.20;;;13.60;99.90;;;;;;6170291;23;20422;-83
2022/09/12 04:02:33;;;;;;;21.10;17.90;;;13.50;99.90;;;;;;6181742;23;20406;-85
2022/09/12 04:05:01;;;;;;;24.23;18.33;;;13.50;99.90;;;;;;6178339;23;20469;-86
2022/09/12 04:07:29;;;;;;;19.93;17.90;;;13.50;99.90;;;;;;6175578;23;20471;-86
2022/09/12 04:09:56;;;;;;;23.03;16.83;;;13.50;99.90;;;;;;6160009;23;20479;-87
2022/09/12 04:12:23;;;;;;;20.60;17.97;;;13.50;99.90;;;;;;6160522;23;20406;-86
2022/09/12 04:14:50;;;;;;;24.03;19.13;;;13.40;99.90;;;;;;6163023;23;20427;-88
2022/09/12 04:17:16;;;;;;;25.47;19.50;;;13.40;99.90;;;;;;6163619;23;20392;-88
2022/09/12 04:19:43;;;;;;;21.30;19.07;;;13.40;99.90;;;;;;6169954;23;20438;-88
2022/09/12 04:22:10;;;;;;;19.20;16.80;;;13.40;99.90;;;;;;6159789;23;20785;-88
2022/09/12 04:24:40;;;;;;;21.10;17.93;;;13.30;99.90;;;;;;6157899;23;20454;-89
2022/09/12 04:27:07;;;;;;;21.57;19.47;;;13.40;99.90;;;;;;6157535;23;20419;-90
2022/09/12 04:29:34;;;;;;;20.27;18.20;;;13.30;99.90;;;;;;6157907;23;20494;-90
2022/09/12 04:32:02;;;;;;;25.37;19.43;;;13.30;99.90;;;;;;6162226;23;20784;-89
2022/09/12 04:34:31;;;;;;;20.23;18.10;;;13.30;99.90;;;;;;6160979;23;20541;-89
2022/09/12 04:36:58;;;;;;;20.17;17.07;;;13.20;99.90;;;;;;6170991;23;20411;-88
2022/09/12 04:39:25;;;;;;;19.13;17.13;;;13.20;99.90;;;;;;6183623;23;20435;-88
2022/09/12 04:41:53;;;;;;;19.90;17.87;;;13.20;99.90;;;;;;6160174;23;20404;-89
2022/09/12 04:44:20;;;;;;;20.00;17.90;;;13.20;99.90;;;;;;6158180;23;20439;-88
2022/09/12 04:46:47;;;;;;;19.40;17.17;;;13.20;99.90;;;;;;6165387;23;20411;-88
2022/09/12 04:49:18;;;;;;;24.97;18.10;;;13.10;99.90;;;;;;6157556;23;20467;-88
2022/09/12 04:51:45;;;;;;;26.23;18.90;;;13.20;99.90;;;;;;6159831;23;20395;-89
2022/09/12 04:54:14;;;;;;;21.90;18.13;;;13.10;99.90;;;;;;6174714;23;20418;-87
2022/09/12 04:56:42;;;;;;;20.13;16.70;;;13.10;99.90;;;;;;6182117;23;20395;-86
2022/09/12 04:59:11;;;;;;;24.57;18.53;;;13.10;99.90;;;;;;6167665;23;20418;-89
2022/09/12 05:01:38;;;;;;;19.50;17.40;;;13.10;99.90;;;;;;6175508;23;20459;-87
2022/09/12 05:04:05;;;;;;;23.60;18.37;;;13.10;99.90;;;;;;6184113;23;20431;-88
2022/09/12 05:06:34;;;;;;;20.23;18.07;;;13.20;99.90;;;;;;6176962;23;20466;-89
2022/09/12 05:09:02;;;;;;;21.33;17.53;;;13.20;99.90;;;;;;6157432;23;20423;-89
2022/09/12 05:11:30;;;;;;;24.27;19.47;;;13.20;99.90;;;;;;6159566;23;20415;-88
2022/09/12 05:13:57;;;;;;;33.27;18.47;;;13.20;99.90;;;;;;6162608;23;20434;-89
2022/09/12 05:16:27;;;;;;;22.30;17.50;;;13.20;99.90;;;;;;6170557;23;20411;-87
2022/09/12 05:18:55;;;;;;;23.90;17.80;;;13.20;99.90;;;;;;6183566;23;20388;-87
2022/09/12 05:21:23;;;;;;;36.97;19.53;;;13.20;99.90;;;;;;6183618;23;20383;-88
2022/09/12 05:23:52;;;;;;;19.53;16.77;;;13.20;99.90;;;;;;6178514;23;20447;-89
2022/09/12 05:26:20;;;;;;;24.43;17.33;;;13.20;99.90;;;;;;6177530;23;20436;-89
2022/09/12 05:28:49;;;;;;;22.80;15.87;;;13.20;99.90;;;;;;6175015;23;20439;-89
2022/09/12 05:31:18;;;;;;;23.40;17.30;;;13.20;99.90;;;;;;6165369;23;20410;-89
2022/09/12 05:33:48;;;;;;;18.53;15.87;;;13.20;99.90;;;;;;6161602;23;20424;-89
2022/09/12 05:36:17;;;;;;;20.37;16.83;;;13.20;99.90;;;;;;6158328;23;20851;-89
2022/09/12 05:38:44;;;;;;;19.17;17.20;;;13.20;99.90;;;;;;6160075;23;20882;-89
2022/09/12 05:41:12;;;;;;;22.47;16.77;;;13.30;99.90;;;;;;6157948;23;20391;-89
2022/09/12 05:43:44;;;;;;;29.17;19.03;;;13.20;99.90;;;;;;6160462;23;20449;-89
2022/09/12 05:46:13;;;;;;;21.40;18.60;;;13.30;99.90;;;;;;6168863;23;20450;-88
2022/09/12 05:48:42;;;;;;;28.60;18.10;;;13.30;99.90;;;;;;6171316;23;20807;-88
2022/09/12 05:51:12;;;;;;;23.10;17.37;;;13.30;99.90;;;;;;6177891;23;20392;-87
2022/09/12 05:53:40;;;;;;;23.53;16.97;;;13.40;99.90;;;;;;6182624;23;20443;-85
2022/09/12 05:56:09;;;;;;;21.10;16.50;;;13.40;99.90;;;;;;6181513;23;20380;-85
2022/09/12 05:58:38;;;;;;;18.67;15.97;;;13.40;99.90;;;;;;6170645;23;20399;-89
2022/09/12 06:01:07;;;;;;;23.90;16.13;;;13.50;99.90;;;;;;6162257;23;20797;-88
2022/09/12 06:03:34;;;;;;;19.80;15.67;;;13.40;99.90;;;;;;6171176;23;20458;-88
2022/09/12 06:06:04;;;;;;;18.47;16.57;;;13.50;99.90;;;;;;6178718;23;20417;-88
2022/09/12 06:08:35;;;;;;;19.07;16.47;;;13.50;99.90;;;;;;6171078;23;20403;-89
2022/09/12 06:11:03;;;;;;;25.87;16.80;;;13.50;99.90;;;;;;6160732;23;20405;-89
2022/09/12 06:13:32;;;;;;;18.07;15.83;;;13.50;99.90;;;;;;6159513;23;20407;-89
2022/09/12 06:16:09;;;;;;;21.83;16.60;;;13.50;99.90;;;;;;6159605;23;20395;-89
2022/09/12 06:18:37;;;;;;;16.60;14.90;;;13.60;99.90;;;;;;6159001;23;20481;-87
2022/09/12 06:21:05;;;;;;;20.53;17.10;;;13.60;99.90;;;;;;6161935;23;20403;-88
2022/09/12 06:23:33;;;;;;;17.50;15.40;;;13.60;99.90;;;;;;6182932;23;20402;-88
2022/09/12 06:26:01;;;;;;;19.13;17.17;;;13.70;99.90;;;;;;6172547;23;20454;-88
2022/09/12 06:28:28;;;;;;;17.33;15.53;;;13.70;99.90;;;;;;6161559;23;20411;-88
2022/09/12 06:31:02;;;;;;;20.73;16.97;;;13.80;99.90;;;;;;6171935;23;20403;-88
2022/09/12 06:33:29;;;;;;;21.17;16.20;;;13.80;99.90;;;;;;6173219;23;20394;-88
2022/09/12 06:35:55;;;;;;;18.20;15.40;;;13.90;99.90;;;;;;6170996;23;20403;-88
2022/09/12 06:38:22;;;;;;;17.73;15.57;;;13.90;99.90;;;;;;6167694;23;20380;-88
2022/09/12 06:40:50;;;;;;;18.73;16.80;;;14.00;99.90;;;;;;6182997;23;20407;-86
2022/09/12 06:43:18;;;;;;;20.37;15.63;;;14.10;99.90;;;;;;6174872;23;20474;-88
2022/09/12 06:45:49;;;;;;;20.73;18.23;;;14.20;99.90;;;;;;6161334;23;20447;-88
2022/09/12 06:48:15;;;;;;;18.30;15.80;;;14.20;99.90;;;;;;6174397;23;20375;-89
2022/09/12 06:50:42;;;;;;;17.70;15.80;;;14.30;99.90;;;;;;6185300;23;20454;-87
2022/09/12 06:53:09;;;;;;;21.07;16.37;;;14.40;99.90;;;;;;6185601;23;20442;-87
2022/09/12 06:55:36;;;;;;;15.83;14.17;;;14.40;99.90;;;;;;6176642;23;20434;-88
2022/09/12 06:58:04;;;;;;;20.70;15.13;;;14.40;99.90;;;;;;6163039;23;20418;-90
2022/09/12 07:00:31;;;;;;;17.97;16.00;;;14.50;99.90;;;;;;6173716;23;20466;-86
2022/09/12 07:02:57;;;;;;;21.47;15.63;;;14.60;99.90;;;;;;6182110;23;20399;-87
2022/09/12 07:05:24;;;;;;;17.80;15.90;;;14.70;99.90;;;;;;6161829;23;20447;-90
2022/09/12 07:07:51;;;;;;;25.07;16.77;;;14.80;99.90;;;;;;6163067;23;20415;-88
2022/09/12 07:10:18;;;;;;;17.53;15.40;;;14.90;99.90;;;;;;6162643;23;20407;-87
2022/09/12 07:12:44;;;;;;;20.63;16.63;;;15.00;99.90;;;;;;6180564;23;20450;-88
2022/09/12 07:15:12;;;;;;;17.13;15.30;;;15.10;99.90;;;;;;6179591;23;20443;-88
2022/09/12 07:17:39;;;;;;;15.77;14.23;;;15.30;99.90;;;;;;6182297;23;20403;-88
2022/09/12 07:20:07;;;;;;;16.20;14.20;;;15.60;99.90;;;;;;6171645;23;20773;-88
2022/09/12 07:22:34;;;;;;;14.63;13.03;;;16.10;99.90;;;;;;6166696;23;20439;-87
2022/09/12 07:25:00;;;;;;;13.87;12.67;;;16.50;99.90;;;;;;6164598;23;21363;-88
2022/09/12 07:27:27;;;;;;;14.67;13.17;;;16.60;99.90;;;;;;6178311;23;20437;-87
2022/09/12 07:29:54;;;;;;;15.83;12.90;;;16.60;99.90;;;;;;6162791;23;20407;-88
2022/09/12 07:32:23;;;;;;;13.93;12.53;;;16.60;99.90;;;;;;6159015;23;20752;-89
2022/09/12 07:34:49;;;;;;;18.57;13.90;;;16.80;99.90;;;;;;6158189;23;20452;-89
2022/09/12 07:37:16;;;;;;;13.87;12.57;;;16.90;99.90;;;;;;6157752;23;20443;-90
2022/09/12 07:39:43;;;;;;;14.10;12.70;;;16.90;99.90;;;;;;6157394;23;20494;-89
2022/09/12 07:42:11;;;;;;;13.90;12.50;;;17.00;99.90;;;;;;6159775;23;20407;-90
2022/09/12 07:44:38;;;;;;;13.57;12.00;;;17.10;99.90;;;;;;6161190;23;20453;-89
2022/09/12 07:47:05;;;;;;;12.67;11.50;;;17.60;99.90;;;;;;6161816;23;20447;-85
2022/09/12 07:49:33;;;;;;;13.50;12.20;;;17.90;99.90;;;;;;6159916;23;20421;-86
2022/09/12 07:51:59;;;;;;;13.70;12.47;;;18.20;99.90;;;;;;6169999;23;20416;-84
2022/09/12 07:54:26;;;;;;;13.20;11.50;;;18.60;99.90;;;;;;6171567;23;20419;-82
2022/09/12 07:56:53;;;;;;;11.10;10.17;;;18.70;99.90;;;;;;6167916;23;20407;-86
2022/09/12 07:59:20;;;;;;;12.83;11.67;;;18.50;99.90;;;;;;6163164;23;20419;-84
2022/09/12 08:01:46;;;;;;;11.60;10.50;;;18.40;99.90;;;;;;6159581;23;20733;-82
2022/09/12 08:04:13;;;;;;;12.37;10.23;;;18.60;99.90;;;;;;6159496;23;20427;-84
2022/09/12 08:06:41;;;;;;;12.63;10.47;;;19.00;99.90;;;;;;6163787;23;20519;-81
2022/09/12 08:09:10;;;;;;;11.47;10.30;;;19.00;99.90;;;;;;6180303;23;20399;-80
2022/09/12 08:11:37;;;;;;;11.53;10.47;;;18.90;99.90;;;;;;6177755;23;20419;-82
2022/09/12 08:14:04;;;;;;;10.93;9.93;;;18.70;99.90;;;;;;6174374;23;20439;-82
2022/09/12 08:16:32;;;;;;;10.20;8.20;;;18.70;99.90;;;;;;6175110;23;20836;-82
2022/09/12 08:19:00;;;;;;;10.97;9.20;;;18.70;99.90;;;;;;6172085;23;20409;-83
2022/09/12 08:21:29;;;;;;;10.67;9.30;;;19.00;99.90;;;;;;6169213;23;20392;-83
2022/09/12 08:23:59;;;;;;;9.90;9.00;;;19.20;99.90;;;;;;6121396;23;1030567;-83
2022/09/12 08:26:26;;;;;;;9.67;8.67;;;19.30;99.90;;;;;;6167172;23;20949;-83
2022/09/12 08:28:54;;;;;;;9.63;8.53;;;19.60;99.90;;;;;;6163638;23;20407;-83
2022/09/12 08:31:23;;;;;;;8.67;7.87;;;19.90;99.90;;;;;;6164684;23;20423;-81
2022/09/12 08:33:50;;;;;;;8.83;7.13;;;20.40;99.90;;;;;;6163414;23;20482;-83
2022/09/12 08:36:19;;;;;;;7.73;7.03;;;21.90;99.90;;;;;;6162782;23;20450;-82
2022/09/12 08:38:48;;;;;;;6.50;6.00;;;23.20;97.90;;;;;;6161514;23;20907;-83
2022/09/12 08:41:26;;;;;;;9.03;8.03;;;23.70;95.30;;;;;;6160975;23;20473;-83
2022/09/12 08:44:37;;;;;;;8.43;5.87;;;25.00;93.10;;;;;;6174420;23;20426;-83
2022/09/12 08:47:27;;;;;;;7.30;6.60;;;27.00;84.60;;;;;;6113940;23;20471;-83
2022/09/12 08:50:01;;;;;;;6.00;5.40;;;27.30;80.10;;;;;;6158848;23;20419;-83
2022/09/12 08:52:33;;;;;;;5.30;4.80;;;28.60;74.80;;;;;;6177691;23;20366;-82
2022/09/12 08:55:01;;;;;;;5.43;4.97;;;29.40;70.90;;;;;;6172666;23;20419;-82
2022/09/12 08:57:29;;;;;;;4.53;4.13;;;30.40;64.90;;;;;;6164525;23;20408;-83
2022/09/12 08:59:56;;;;;;;5.50;4.97;;;30.30;62.70;;;;;;6168239;23;20401;-83
2022/09/12 09:02:42;;;;;;;4.60;4.20;;;30.00;60.70;;;;;;6175895;23;20412;-82
2022/09/12 09:05:19;;;;;;;4.40;4.10;;;31.20;60.10;;;;;;6173462;23;20515;-84
2022/09/12 09:08:19;;;;;;;4.50;4.13;;;32.60;57.10;;;;;;6159714;23;20408;-83
2022/09/12 09:10:53;;;;;;;4.30;3.90;;;32.20;54.20;;;;;;6161738;23;20420;-86
2022/09/12 09:16:22;;;;;;;4.57;3.70;;;32.00;55.10;;;;;;6158375;23;20374;-83
2022/09/12 09:18:51;;;;;;;4.13;3.83;;;31.00;54.50;;;;;;6178185;23;20378;-84
2022/09/12 09:21:23;;;;;;;5.37;2.77;;;31.20;54.60;;;;;;6159215;23;20406;-85
2022/09/12 09:23:55;;;;;;;3.80;3.50;;;31.80;53.00;;;;;;6166995;23;20484;-85
2022/09/12 09:26:28;;;;;;;7.00;4.27;;;31.80;51.60;;;;;;6158489;23;20478;-86
2022/09/12 09:29:00;;;;;;;3.50;3.20;;;31.90;52.70;;;;;;6172551;23;20395;-85
2022/09/12 09:31:39;;;;;;;4.03;3.50;;;32.70;51.30;;;;;;6172056;23;20418;-85
2022/09/12 09:34:14;;;;;;;2.60;2.40;;;33.40;50.70;;;;;;6160973;23;20430;-85
2022/09/12 09:36:50;;;;;;;3.93;3.60;;;33.20;48.30;;;;;;6158603;23;20927;-85
2022/09/12 09:39:27;;;;;;;3.80;3.37;;;33.90;48.60;;;;;;6159366;23;20400;-86
2022/09/12 09:42:09;;;;;;;3.13;2.73;;;35.50;46.50;;;;;;6158854;23;20397;-85
2022/09/12 09:44:37;;;;;;;4.30;3.90;;;35.00;44.60;;;;;;6156968;23;20440;-85
2022/09/12 09:47:05;;;;;;;3.73;3.20;;;33.90;47.70;;;;;;6156493;23;20418;-84
2022/09/12 09:49:34;;;;;;;5.10;3.30;;;35.50;46.50;;;;;;6157675;23;20426;-84
2022/09/12 09:52:02;;;;;;;3.63;3.00;;;36.50;44.10;;;;;;6157344;23;20413;-83
2022/09/12 09:54:34;;;;;;;4.00;3.60;;;37.20;42.40;;;;;;6156339;23;20428;-85
2022/09/12 09:57:03;;;;;;;3.67;3.37;;;35.80;42.30;;;;;;6168075;23;20408;-83
2022/09/12 09:59:32;;;;;;;4.60;4.20;;;35.40;44.10;;;;;;6179947;23;20403;-83
2022/09/12 10:02:17;;;;;;;4.70;3.23;;;36.40;43.00;;;;;;6162839;23;20410;-84
2022/09/12 10:04:54;;;;;;;4.63;3.47;;;37.40;41.70;;;;;;6156804;23;20434;-83
2022/09/12 10:07:22;;;;;;;3.70;3.40;;;38.30;40.20;;;;;;6157464;23;20396;-83
2022/09/12 10:10:06;;;;;;;3.93;3.63;;;38.60;39.10;;;;;;6156021;23;20445;-84
2022/09/12 10:12:32;;;;;;;4.17;3.77;;;37.80;39.30;;;;;;6158028;23;20391;-84
2022/09/12 10:15:01;;;;;;;6.07;3.97;;;37.40;39.80;;;;;;6155071;23;20922;-84
2022/09/12 10:17:31;;;;;;;4.00;3.50;;;36.70;40.00;;;;;;6156438;23;20421;-84
2022/09/12 10:20:00;;;;;;;4.10;3.80;;;37.70;38.90;;;;;;6172265;23;20403;-83
2022/09/12 10:22:29;;;;;;;6.57;3.53;;;37.90;38.50;;;;;;6171779;23;20401;-83
2022/09/12 10:24:59;;;;;;;5.13;4.67;;;37.70;37.80;;;;;;6156420;23;20441;-83
2022/09/12 10:27:30;;;;;;;3.40;3.10;;;37.30;38.70;;;;;;6155735;23;20411;-83
2022/09/12 10:30:03;;;;;;;3.10;2.80;;;37.50;38.60;;;;;;6159300;23;20403;-83
2022/09/12 10:32:36;;;;;;;3.57;3.23;;;39.10;36.10;;;;;;6180323;23;20409;-83
2022/09/12 10:35:07;;;;;;;3.00;2.73;;;38.80;35.40;;;;;;6179735;23;20501;-84
2022/09/12 10:37:38;;;;;;;4.23;2.93;;;37.00;35.30;;;;;;6180888;23;20380;-83
2022/09/12 10:40:08;;;;;;;3.50;3.17;;;37.90;36.50;;;;;;6180068;23;20381;-83
2022/09/12 10:42:49;;;;;;;2.77;2.57;;;37.70;35.70;;;;;;6179040;23;20442;-85
2022/09/12 10:45:27;;;;;;;2.67;2.47;;;38.40;33.90;;;;;;6179427;23;20476;-83
2022/09/12 10:47:58;;;;;;;2.90;2.70;;;39.50;32.50;;;;;;6179656;23;20467;-83
2022/09/12 10:50:27;;;;;;;2.80;2.50;;;38.00;32.50;;;;;;6179784;23;20401;-83
2022/09/12 10:52:55;;;;;;;2.77;2.13;;;37.90;33.70;;;;;;6180812;23;20406;-83
2022/09/12 10:55:28;;;;;;;2.53;2.33;;;38.60;33.40;;;;;;6181477;23;20423;-85
2022/09/12 10:58:23;;;;;;;3.90;2.47;;;39.20;32.20;;;;;;6181906;23;20406;-83
2022/09/12 11:00:58;;;;;;;3.27;2.50;;;38.00;31.70;;;;;;6182302;23;20423;-84
2022/09/12 11:03:39;;;;;;;1.77;1.67;;;37.30;32.60;;;;;;6181927;23;20425;-82
2022/09/12 11:06:08;;;;;;;2.23;2.03;;;37.30;30.90;;;;;;6175351;23;20430;-85
2022/09/12 11:08:50;;;;;;;2.40;2.20;;;36.70;32.20;;;;;;6163361;23;20414;-85
2022/09/12 11:11:34;;;;;;;2.63;2.43;;;37.00;32.00;;;;;;6163196;23;20422;-84
2022/09/12 11:14:13;;;;;;;3.30;3.00;;;34.40;34.30;;;;;;6173568;23;20426;-84
2022/09/12 11:16:48;;;;;;;2.40;2.10;;;34.30;36.00;;;;;;6165140;23;20384;-85
2022/09/12 11:19:45;;;;;;;3.20;2.33;;;33.10;35.90;;;;;;6159128;23;20404;-84
2022/09/12 11:22:23;;;;;;;2.77;2.57;;;33.50;36.20;;;;;;6162643;23;20469;-85
2022/09/12 11:25:12;;;;;;;2.67;2.17;;;35.60;34.60;;;;;;6157711;23;20441;-84
2022/09/12 11:27:51;;;;;;;2.73;2.53;;;37.00;34.00;;;;;;6158242;23;20394;-83
2022/09/12 11:30:18;;;;;;;2.33;1.97;;;37.70;31.50;;;;;;6159801;23;20406;-84
2022/09/12 11:33:21;;;;;;;2.43;2.20;;;37.90;31.20;;;;;;6156923;23;20422;-84
2022/09/12 11:35:51;;;;;;;3.73;2.10;;;37.80;31.50;;;;;;6095560;23;20516;-84
2022/09/12 11:38:31;;;;;;;2.27;2.07;;;37.10;31.90;;;;;;6156509;23;20402;-83
2022/09/12 11:41:02;;;;;;;2.10;1.90;;;37.50;31.30;;;;;;6176371;23;20402;-83
2022/09/12 11:43:36;;;;;;;2.90;2.10;;;38.30;31.40;;;;;;6177156;23;20391;-83
2022/09/12 11:46:12;;;;;;;3.00;1.80;;;38.00;30.20;;;;;;6177824;23;20792;-84
2022/09/12 11:48:46;;;;;;;2.00;1.57;;;38.10;29.40;;;;;;6172096;23;20449;-84
2022/09/12 11:51:19;;;;;;;2.23;2.03;;;37.00;30.20;;;;;;6165983;23;20391;-83
2022/09/12 11:53:57;;;;;;;3.40;2.00;;;37.80;31.70;;;;;;6157258;23;20489;-86
2022/09/12 11:56:25;;;;;;;2.53;1.77;;;38.10;31.40;;;;;;6157216;23;20394;-84
2022/09/12 11:58:58;;;;;;;3.23;1.40;;;36.90;30.80;;;;;;6156393;23;20418;-85
2022/09/12 12:01:32;;;;;;;4.43;1.77;;;36.50;31.10;;;;;;6155965;23;20399;-83
2022/09/12 12:04:06;;;;;;;1.50;1.40;;;36.50;31.80;;;;;;6156021;23;20473;-86
2022/09/12 12:06:46;;;;;;;1.57;1.47;;;36.30;31.80;;;;;;6156270;23;20791;-84
2022/09/12 12:09:14;;;;;;;1.33;1.07;;;35.50;32.00;;;;;;6158619;23;20390;-84
2022/09/12 12:11:47;;;;;;;1.87;1.10;;;36.60;30.70;;;;;;6158090;23;20461;-85
2022/09/12 12:14:18;;;;;;;1.73;1.37;;;37.60;30.00;;;;;;6131699;23;20435;-85
2022/09/12 12:16:45;;;;;;;1.80;1.27;;;37.40;30.00;;;;;;6173054;23;20379;-83
2022/09/12 12:19:32;;;;;;;1.77;1.50;;;38.10;29.50;;;;;;6177263;23;20418;-84
2022/09/12 12:22:08;;;;;;;1.97;1.30;;;37.80;28.60;;;;;;6157440;23;20396;-85
2022/09/12 12:24:34;;;;;;;2.10;1.23;;;37.70;29.20;;;;;;6155383;23;20448;-84
2022/09/12 12:27:03;;;;;;;1.40;1.17;;;37.40;29.40;;;;;;6153763;23;20451;-85
2022/09/12 12:29:38;;;;;;;1.30;1.20;;;38.60;29.20;;;;;;6155335;23;20418;-84
2022/09/12 12:32:25;;;;;;;1.97;1.13;;;38.20;29.20;;;;;;6160683;23;20411;-84
2022/09/12 12:35:17;;;;;;;3.43;1.70;;;38.50;29.10;;;;;;6161634;23;20427;-85
2022/09/12 12:37:56;;;;;;;1.50;1.27;;;38.50;30.00;;;;;;6134583;23;20912;-85
2022/09/12 12:40:27;;;;;;;1.93;1.73;;;37.80;28.60;;;;;;6164034;23;20422;-85
2022/09/12 12:43:01;;;;;;;1.57;1.40;;;37.80;28.80;;;;;;6172951;23;20406;-85
2022/09/12 12:46:07;;;;;;;1.77;1.30;;;37.40;29.80;;;;;;6158848;23;20434;-85
2022/09/12 12:48:57;;;;;;;4.17;1.90;;;38.50;28.90;;;;;;6168638;23;20390;-84
2022/09/12 12:51:42;;;;;;;1.80;1.70;;;38.10;29.30;;;;;;6177584;23;20445;-84
2022/09/12 12:54:47;;;;;;;1.93;1.53;;;38.90;29.60;;;;;;6177549;23;20430;-85
2022/09/12 12:57:47;;;;;;;2.70;2.50;;;38.20;29.30;;;;;;6177856;23;20395;-85
2022/09/12 13:00:32;;;;;;;1.50;1.40;;;38.80;29.00;;;;;;6170849;23;20407;-87